sensor_id;sensor_type;location;lat;lon;timestamp;temperature;humidity
41720;DHT22;27405;53.316;-6.294;2023-07-31T00:01:24;17.80;99.90
41720;DHT22;27405;53.316;-6.294;2023-07-31T00:03:50;17.70;99.90
41720;DHT22;27405;53.316;-6.294;2023-07-31T00:06:15;17.70;99.90
41720;DHT22;27405;53.316;-6.294;2023-07-31T00:08:41;17.70;99.90
41720;DHT22;27405;53.316;-6.294;2023-07-31T00:11:07;17.70;99.90
41720;DHT22;27405;53.316;-6.294;2023-07-31T00:13:32;17.70;99.90
41720;DHT22;27405;53.316;-6.294;2023-07-31T00:15:58;17.70;99.90
41720;DHT22;27405;53.316;-6.294;2023-07-31T00:18:24;17.70;99.90
41720;DHT22;27405;53.316;-6.294;2023-07-31T00:20:50;17.70;99.90
41720;DHT22;27405;53.316;-6.294;2023-07-31T00:23:16;17.70;99.90
41720;DHT22;27405;53.316;-6.294;2023-07-31T00:25:42;17.80;99.90
41720;DHT22;27405;53.316;-6.294;2023-07-31T00:28:07;17.80;99.90
41720;DHT22;27405;53.316;-6.294;2023-07-31T00:30:33;17.80;99.90
41720;DHT22;27405;53.316;-6.294;2023-07-31T00:32:59;17.70;99.90
41720;DHT22;27405;53.316;-6.294;2023-07-31T00:35:24;17.70;99.90
41720;DHT22;27405;53.316;-6.294;2023-07-31T00:37:50;17.70;99.90
41720;DHT22;27405;53.316;-6.294;2023-07-31T00:40:16;17.70;99.90
41720;DHT22;27405;53.316;-6.294;2023-07-31T00:42:41;17.70;99.90
41720;DHT22;27405;53.316;-6.294;2023-07-31T00:45:07;17.70;99.90
41720;DHT22;27405;53.316;-6.294;2023-07-31T00:47:33;17.70;99.90
41720;DHT22;27405;53.316;-6.294;2023-07-31T00:49:59;17.70;99.90
41720;DHT22;27405;53.316;-6.294;2023-07-31T00:52:25;17.70;99.90
41720;DHT22;27405;53.316;-6.294;2023-07-31T00:54:50;17.70;99.90
41720;DHT22;27405;53.316;-6.294;2023-07-31T00:57:16;17.70;99.90
41720;DHT22;27405;53.316;-6.294;2023-07-31T00:59:42;17.70;99.90
41720;DHT22;27405;53.316;-6.294;2023-07-31T01:02:08;17.70;99.90
41720;DHT22;27405;53.316;-6.294;2023-07-31T01:04:34;17.70;99.90
41720;DHT22;27405;53.316;-6.294;2023-07-31T01:07:22;17.70;99.90
41720;DHT22;27405;53.316;-6.294;2023-07-31T01:13:06;17.70;99.90
41720;DHT22;27405;53.316;-6.294;2023-07-31T01:15:31;17.60;99.90
41720;DHT22;27405;53.316;-6.294;2023-07-31T01:17:57;17.60;99.90
41720;DHT22;27405;53.316;-6.294;2023-07-31T01:20:24;17.60;99.90
41720;DHT22;27405;53.316;-6.294;2023-07-31T01:26:03;17.60;99.90
41720;DHT22;27405;53.316;-6.294;2023-07-31T01:31:03;17.60;99.90
41720;DHT22;27405;53.316;-6.294;2023-07-31T01:33:31;17.60;99.90
41720;DHT22;27405;53.316;-6.294;2023-07-31T01:35:57;17.50;99.90
41720;DHT22;27405;53.316;-6.294;2023-07-31T01:38:26;17.50;99.90
41720;DHT22;27405;53.316;-6.294;2023-07-31T01:40:53;17.50;99.90
41720;DHT22;27405;53.316;-6.294;2023-07-31T01:43:19;17.50;99.90
41720;DHT22;27405;53.316;-6.294;2023-07-31T01:45:44;17.40;99.90
41720;DHT22;27405;53.316;-6.294;2023-07-31T01:48:10;17.40;99.90
41720;DHT22;27405;53.316;-6.294;2023-07-31T01:50:36;17.40;99.90
41720;DHT22;27405;53.316;-6.294;2023-07-31T01:53:01;17.40;99.90
41720;DHT22;27405;53.316;-6.294;2023-07-31T01:55:27;17.40;99.90
41720;DHT22;27405;53.316;-6.294;2023-07-31T01:57:53;17.30;99.90
41720;DHT22;27405;53.316;-6.294;2023-07-31T02:00:26;17.30;99.90
41720;DHT22;27405;53.316;-6.294;2023-07-31T02:02:55;17.30;99.90
41720;DHT22;27405;53.316;-6.294;2023-07-31T02:05:20;17.30;99.90
41720;DHT22;27405;53.316;-6.294;2023-07-31T02:07:46;17.30;99.90
41720;DHT22;27405;53.316;-6.294;2023-07-31T02:10:12;17.30;99.90
41720;DHT22;27405;53.316;-6.294;2023-07-31T02:12:37;17.30;99.90
41720;DHT22;27405;53.316;-6.294;2023-07-31T02:15:03;17.30;99.90
41720;DHT22;27405;53.316;-6.294;2023-07-31T02:17:29;17.30;99.90
41720;DHT22;27405;53.316;-6.294;2023-07-31T02:19:55;17.30;99.90
41720;DHT22;27405;53.316;-6.294;2023-07-31T02:22:21;17.30;99.90
41720;DHT22;27405;53.316;-6.294;2023-07-31T02:24:46;17.30;99.90
41720;DHT22;27405;53.316;-6.294;2023-07-31T02:27:12;17.40;99.90
41720;DHT22;27405;53.316;-6.294;2023-07-31T02:29:38;17.40;99.90
41720;DHT22;27405;53.316;-6.294;2023-07-31T02:32:03;17.40;99.90
41720;DHT22;27405;53.316;-6.294;2023-07-31T02:34:30;17.40;99.90
41720;DHT22;27405;53.316;-6.294;2023-07-31T02:36:55;17.40;99.90
41720;DHT22;27405;53.316;-6.294;2023-07-31T02:39:21;17.40;99.90
41720;DHT22;27405;53.316;-6.294;2023-07-31T02:41:47;17.40;99.90
41720;DHT22;27405;53.316;-6.294;2023-07-31T02:44:12;17.40;99.90
41720;DHT22;27405;53.316;-6.294;2023-07-31T02:46:40;17.40;99.90
41720;DHT22;27405;53.316;-6.294;2023-07-31T02:49:05;17.40;99.90
41720;DHT22;27405;53.316;-6.294;2023-07-31T02:51:31;17.40;99.90
41720;DHT22;27405;53.316;-6.294;2023-07-31T02:53:57;17.40;99.90
41720;DHT22;27405;53.316;-6.294;2023-07-31T02:56:22;17.40;99.90
41720;DHT22;27405;53.316;-6.294;2023-07-31T02:58:48;17.40;99.90
41720;DHT22;27405;53.316;-6.294;2023-07-31T03:01:14;17.40;99.90
41720;DHT22;27405;53.316;-6.294;2023-07-31T03:03:41;17.40;99.90
41720;DHT22;27405;53.316;-6.294;2023-07-31T03:06:07;17.40;99.90
41720;DHT22;27405;53.316;-6.294;2023-07-31T03:08:33;17.40;99.90
41720;DHT22;27405;53.316;-6.294;2023-07-31T03:10:59;17.40;99.90
41720;DHT22;27405;53.316;-6.294;2023-07-31T03:13:24;17.40;99.90
41720;DHT22;27405;53.316;-6.294;2023-07-31T03:15:50;17.30;99.90
41720;DHT22;27405;53.316;-6.294;2023-07-31T03:18:16;17.30;99.90
41720;DHT22;27405;53.316;-6.294;2023-07-31T03:20:43;17.30;99.90
41720;DHT22;27405;53.316;-6.294;2023-07-31T03:23:09;17.30;99.90
41720;DHT22;27405;53.316;-6.294;2023-07-31T03:25:35;17.30;99.90
41720;DHT22;27405;53.316;-6.294;2023-07-31T03:28:00;17.30;99.90
41720;DHT22;27405;53.316;-6.294;2023-07-31T03:30:26;17.40;99.90
41720;DHT22;27405;53.316;-6.294;2023-07-31T03:32:52;17.30;99.90
41720;DHT22;27405;53.316;-6.294;2023-07-31T03:35:18;17.30;99.90
41720;DHT22;27405;53.316;-6.294;2023-07-31T03:37:43;17.30;99.90
41720;DHT22;27405;53.316;-6.294;2023-07-31T03:40:10;17.30;99.90
41720;DHT22;27405;53.316;-6.294;2023-07-31T03:42:35;17.30;99.90
41720;DHT22;27405;53.316;-6.294;2023-07-31T03:45:01;17.30;99.90
41720;DHT22;27405;53.316;-6.294;2023-07-31T03:47:27;17.30;99.90
41720;DHT22;27405;53.316;-6.294;2023-07-31T03:49:52;17.40;99.90
41720;DHT22;27405;53.316;-6.294;2023-07-31T03:52:18;17.30;99.90
41720;DHT22;27405;53.316;-6.294;2023-07-31T03:54:44;17.40;99.90
41720;DHT22;27405;53.316;-6.294;2023-07-31T03:57:10;17.40;99.90
41720;DHT22;27405;53.316;-6.294;2023-07-31T03:59:37;17.40;99.90
41720;DHT22;27405;53.316;-6.294;2023-07-31T04:02:04;17.40;99.90
41720;DHT22;27405;53.316;-6.294;2023-07-31T04:04:30;17.40;99.90
41720;DHT22;27405;53.316;-6.294;2023-07-31T04:06:56;17.40;99.90
41720;DHT22;27405;53.316;-6.294;2023-07-31T04:09:21;17.40;99.90
41720;DHT22;27405;53.316;-6.294;2023-07-31T04:11:47;17.30;99.90
41720;DHT22;27405;53.316;-6.294;2023-07-31T04:14:13;17.30;99.90
41720;DHT22;27405;53.316;-6.294;2023-07-31T04:16:38;17.30;99.90
41720;DHT22;27405;53.316;-6.294;2023-07-31T04:19:04;17.30;99.90
41720;DHT22;27405;53.316;-6.294;2023-07-31T04:21:30;17.30;99.90
41720;DHT22;27405;53.316;-6.294;2023-07-31T04:23:55;17.30;99.90
41720;DHT22;27405;53.316;-6.294;2023-07-31T04:26:22;17.30;99.90
41720;DHT22;27405;53.316;-6.294;2023-07-31T04:28:47;17.30;99.90
41720;DHT22;27405;53.316;-6.294;2023-07-31T04:31:13;17.30;99.90
41720;DHT22;27405;53.316;-6.294;2023-07-31T04:33:39;17.30;99.90
41720;DHT22;27405;53.316;-6.294;2023-07-31T04:36:05;17.30;99.90
41720;DHT22;27405;53.316;-6.294;2023-07-31T04:38:30;17.30;99.90
41720;DHT22;27405;53.316;-6.294;2023-07-31T04:40:56;17.30;99.90
41720;DHT22;27405;53.316;-6.294;2023-07-31T04:43:22;17.20;99.90
41720;DHT22;27405;53.316;-6.294;2023-07-31T04:45:48;17.20;99.90
41720;DHT22;27405;53.316;-6.294;2023-07-31T04:48:14;17.20;99.90
41720;DHT22;27405;53.316;-6.294;2023-07-31T04:50:40;17.20;99.90
41720;DHT22;27405;53.316;-6.294;2023-07-31T04:53:05;17.20;99.90
41720;DHT22;27405;53.316;-6.294;2023-07-31T04:55:31;17.20;99.90
41720;DHT22;27405;53.316;-6.294;2023-07-31T04:57:59;17.20;99.90
41720;DHT22;27405;53.316;-6.294;2023-07-31T05:00:24;17.20;99.90
41720;DHT22;27405;53.316;-6.294;2023-07-31T05:02:50;17.20;99.90
41720;DHT22;27405;53.316;-6.294;2023-07-31T05:05:16;17.20;99.90
41720;DHT22;27405;53.316;-6.294;2023-07-31T05:07:41;17.20;99.90
41720;DHT22;27405;53.316;-6.294;2023-07-31T05:10:07;17.20;99.90
41720;DHT22;27405;53.316;-6.294;2023-07-31T05:12:33;17.20;99.90
41720;DHT22;27405;53.316;-6.294;2023-07-31T05:14:59;17.20;99.90
41720;DHT22;27405;53.316;-6.294;2023-07-31T05:17:24;17.20;99.90
41720;DHT22;27405;53.316;-6.294;2023-07-31T05:19:50;17.20;99.90
41720;DHT22;27405;53.316;-6.294;2023-07-31T05:22:16;17.20;99.90
41720;DHT22;27405;53.316;-6.294;2023-07-31T05:24:41;17.20;99.90
41720;DHT22;27405;53.316;-6.294;2023-07-31T05:27:07;17.20;99.90
41720;DHT22;27405;53.316;-6.294;2023-07-31T05:29:33;17.20;99.90
41720;DHT22;27405;53.316;-6.294;2023-07-31T05:31:59;17.20;99.90
41720;DHT22;27405;53.316;-6.294;2023-07-31T05:34:25;17.20;99.90
41720;DHT22;27405;53.316;-6.294;2023-07-31T05:36:50;17.20;99.90
41720;DHT22;27405;53.316;-6.294;2023-07-31T05:39:16;17.20;99.90
41720;DHT22;27405;53.316;-6.294;2023-07-31T05:41:41;17.10;99.90
41720;DHT22;27405;53.316;-6.294;2023-07-31T05:44:07;17.10;99.90
41720;DHT22;27405;53.316;-6.294;2023-07-31T05:46:33;17.10;99.90
41720;DHT22;27405;53.316;-6.294;2023-07-31T05:48:59;17.00;99.90
41720;DHT22;27405;53.316;-6.294;2023-07-31T05:51:26;17.00;99.90
41720;DHT22;27405;53.316;-6.294;2023-07-31T05:53:53;17.00;99.90
41720;DHT22;27405;53.316;-6.294;2023-07-31T05:56:18;17.00;99.90
41720;DHT22;27405;53.316;-6.294;2023-07-31T05:58:44;17.00;99.90
41720;DHT22;27405;53.316;-6.294;2023-07-31T06:01:10;17.00;99.90
41720;DHT22;27405;53.316;-6.294;2023-07-31T06:03:35;16.90;99.90
41720;DHT22;27405;53.316;-6.294;2023-07-31T06:06:01;16.90;99.90
41720;DHT22;27405;53.316;-6.294;2023-07-31T06:08:27;16.90;99.90
41720;DHT22;27405;53.316;-6.294;2023-07-31T06:10:52;16.90;99.90
41720;DHT22;27405;53.316;-6.294;2023-07-31T06:13:19;16.80;99.90
41720;DHT22;27405;53.316;-6.294;2023-07-31T06:15:44;16.80;99.90
41720;DHT22;27405;53.316;-6.294;2023-07-31T06:18:10;16.80;99.90
41720;DHT22;27405;53.316;-6.294;2023-07-31T06:20:36;16.80;99.90
41720;DHT22;27405;53.316;-6.294;2023-07-31T06:23:02;16.70;99.90
41720;DHT22;27405;53.316;-6.294;2023-07-31T06:25:29;16.80;99.90
41720;DHT22;27405;53.316;-6.294;2023-07-31T06:27:54;16.70;99.90
41720;DHT22;27405;53.316;-6.294;2023-07-31T06:30:20;16.70;99.90
41720;DHT22;27405;53.316;-6.294;2023-07-31T06:32:46;16.80;99.90
41720;DHT22;27405;53.316;-6.294;2023-07-31T06:35:11;16.80;99.90
41720;DHT22;27405;53.316;-6.294;2023-07-31T06:37:37;16.80;99.90
41720;DHT22;27405;53.316;-6.294;2023-07-31T06:40:06;16.80;99.90
41720;DHT22;27405;53.316;-6.294;2023-07-31T06:42:34;16.90;99.90
41720;DHT22;27405;53.316;-6.294;2023-07-31T06:45:01;16.90;99.90
41720;DHT22;27405;53.316;-6.294;2023-07-31T06:47:26;16.90;99.90
41720;DHT22;27405;53.316;-6.294;2023-07-31T06:49:52;16.90;99.90
41720;DHT22;27405;53.316;-6.294;2023-07-31T06:52:18;16.90;99.90
41720;DHT22;27405;53.316;-6.294;2023-07-31T06:54:44;16.90;99.90
41720;DHT22;27405;53.316;-6.294;2023-07-31T06:57:10;16.90;99.90
41720;DHT22;27405;53.316;-6.294;2023-07-31T06:59:35;17.00;99.90
41720;DHT22;27405;53.316;-6.294;2023-07-31T07:02:01;17.00;99.90
41720;DHT22;27405;53.316;-6.294;2023-07-31T07:04:27;16.90;99.90
41720;DHT22;27405;53.316;-6.294;2023-07-31T07:06:52;17.00;99.90
41720;DHT22;27405;53.316;-6.294;2023-07-31T07:09:18;17.00;99.90
41720;DHT22;27405;53.316;-6.294;2023-07-31T07:11:43;17.00;99.90
41720;DHT22;27405;53.316;-6.294;2023-07-31T07:14:09;17.00;99.90
41720;DHT22;27405;53.316;-6.294;2023-07-31T07:16:35;16.90;99.90
41720;DHT22;27405;53.316;-6.294;2023-07-31T07:19:01;16.90;99.90
41720;DHT22;27405;53.316;-6.294;2023-07-31T07:21:26;17.00;99.90
41720;DHT22;27405;53.316;-6.294;2023-07-31T07:23:52;17.00;99.90
41720;DHT22;27405;53.316;-6.294;2023-07-31T07:26:18;17.10;99.90
41720;DHT22;27405;53.316;-6.294;2023-07-31T07:28:43;17.10;99.90
41720;DHT22;27405;53.316;-6.294;2023-07-31T07:31:09;17.10;99.90
41720;DHT22;27405;53.316;-6.294;2023-07-31T07:33:35;17.10;99.90
41720;DHT22;27405;53.316;-6.294;2023-07-31T07:36:01;17.10;99.90
41720;DHT22;27405;53.316;-6.294;2023-07-31T07:38:27;17.00;99.90
41720;DHT22;27405;53.316;-6.294;2023-07-31T07:40:53;17.00;99.90
41720;DHT22;27405;53.316;-6.294;2023-07-31T07:43:19;17.00;99.90
41720;DHT22;27405;53.316;-6.294;2023-07-31T07:45:44;16.90;99.90
41720;DHT22;27405;53.316;-6.294;2023-07-31T07:48:10;16.90;99.90
41720;DHT22;27405;53.316;-6.294;2023-07-31T07:50:37;16.80;99.90
41720;DHT22;27405;53.316;-6.294;2023-07-31T07:53:03;16.80;99.90
41720;DHT22;27405;53.316;-6.294;2023-07-31T07:55:29;16.80;99.90
41720;DHT22;27405;53.316;-6.294;2023-07-31T07:57:54;16.80;99.90
41720;DHT22;27405;53.316;-6.294;2023-07-31T08:00:20;16.80;99.90
41720;DHT22;27405;53.316;-6.294;2023-07-31T08:02:46;16.80;99.90
41720;DHT22;27405;53.316;-6.294;2023-07-31T08:05:12;16.80;99.90
41720;DHT22;27405;53.316;-6.294;2023-07-31T08:07:38;16.80;99.90
41720;DHT22;27405;53.316;-6.294;2023-07-31T08:10:04;16.80;99.90
41720;DHT22;27405;53.316;-6.294;2023-07-31T08:12:30;16.80;99.90
41720;DHT22;27405;53.316;-6.294;2023-07-31T08:14:55;16.80;99.90
41720;DHT22;27405;53.316;-6.294;2023-07-31T08:17:21;16.90;99.90
41720;DHT22;27405;53.316;-6.294;2023-07-31T08:19:47;16.90;99.90
41720;DHT22;27405;53.316;-6.294;2023-07-31T08:22:13;16.90;99.90
41720;DHT22;27405;53.316;-6.294;2023-07-31T08:24:39;17.00;99.90
41720;DHT22;27405;53.316;-6.294;2023-07-31T08:27:06;17.10;99.90
41720;DHT22;27405;53.316;-6.294;2023-07-31T08:29:32;17.20;99.90
41720;DHT22;27405;53.316;-6.294;2023-07-31T08:31:57;17.20;99.90
41720;DHT22;27405;53.316;-6.294;2023-07-31T08:34:23;17.20;99.90
41720;DHT22;27405;53.316;-6.294;2023-07-31T08:36:49;17.20;99.90
41720;DHT22;27405;53.316;-6.294;2023-07-31T08:39:14;17.10;99.90
41720;DHT22;27405;53.316;-6.294;2023-07-31T08:41:40;17.10;99.90
41720;DHT22;27405;53.316;-6.294;2023-07-31T08:44:07;17.00;99.90
41720;DHT22;27405;53.316;-6.294;2023-07-31T08:46:33;16.90;99.90
41720;DHT22;27405;53.316;-6.294;2023-07-31T08:49:00;16.90;99.90
41720;DHT22;27405;53.316;-6.294;2023-07-31T08:51:29;16.90;99.90
41720;DHT22;27405;53.316;-6.294;2023-07-31T08:53:55;17.00;99.90
41720;DHT22;27405;53.316;-6.294;2023-07-31T08:56:22;17.10;99.90
41720;DHT22;27405;53.316;-6.294;2023-07-31T08:58:49;17.10;99.90
41720;DHT22;27405;53.316;-6.294;2023-07-31T09:01:16;17.20;99.90
41720;DHT22;27405;53.316;-6.294;2023-07-31T09:03:43;17.20;99.90
41720;DHT22;27405;53.316;-6.294;2023-07-31T09:06:10;17.40;99.90
41720;DHT22;27405;53.316;-6.294;2023-07-31T09:08:41;17.40;99.90
41720;DHT22;27405;53.316;-6.294;2023-07-31T09:11:08;17.50;99.90
41720;DHT22;27405;53.316;-6.294;2023-07-31T09:13:34;17.50;99.90
41720;DHT22;27405;53.316;-6.294;2023-07-31T09:15:59;17.50;99.90
41720;DHT22;27405;53.316;-6.294;2023-07-31T09:18:25;17.60;99.90
41720;DHT22;27405;53.316;-6.294;2023-07-31T09:21:04;17.60;99.90
41720;DHT22;27405;53.316;-6.294;2023-07-31T09:23:46;17.60;99.90
41720;DHT22;27405;53.316;-6.294;2023-07-31T09:26:35;17.50;99.90
41720;DHT22;27405;53.316;-6.294;2023-07-31T09:29:04;17.50;99.90
41720;DHT22;27405;53.316;-6.294;2023-07-31T09:31:40;17.50;99.90
41720;DHT22;27405;53.316;-6.294;2023-07-31T09:34:06;17.50;99.90
41720;DHT22;27405;53.316;-6.294;2023-07-31T09:36:32;17.50;99.90
41720;DHT22;27405;53.316;-6.294;2023-07-31T09:39:04;17.40;99.90
41720;DHT22;27405;53.316;-6.294;2023-07-31T09:41:30;17.40;99.90
41720;DHT22;27405;53.316;-6.294;2023-07-31T09:43:56;17.30;99.90
41720;DHT22;27405;53.316;-6.294;2023-07-31T09:46:22;17.20;99.90
41720;DHT22;27405;53.316;-6.294;2023-07-31T09:48:48;17.10;99.90
41720;DHT22;27405;53.316;-6.294;2023-07-31T09:51:13;17.00;99.90
41720;DHT22;27405;53.316;-6.294;2023-07-31T09:53:39;17.00;99.90
41720;DHT22;27405;53.316;-6.294;2023-07-31T09:56:05;17.00;99.90
41720;DHT22;27405;53.316;-6.294;2023-07-31T09:58:34;17.00;99.90
41720;DHT22;27405;53.316;-6.294;2023-07-31T10:01:02;16.90;99.90
41720;DHT22;27405;53.316;-6.294;2023-07-31T10:03:29;16.90;99.90
41720;DHT22;27405;53.316;-6.294;2023-07-31T10:05:57;17.00;99.90
41720;DHT22;27405;53.316;-6.294;2023-07-31T10:08:28;17.00;99.90
41720;DHT22;27405;53.316;-6.294;2023-07-31T10:10:58;17.10;99.90
41720;DHT22;27405;53.316;-6.294;2023-07-31T10:13:24;17.20;99.90
41720;DHT22;27405;53.316;-6.294;2023-07-31T10:15:50;17.20;99.90
41720;DHT22;27405;53.316;-6.294;2023-07-31T10:18:18;17.20;99.90
41720;DHT22;27405;53.316;-6.294;2023-07-31T10:20:45;17.20;99.90
41720;DHT22;27405;53.316;-6.294;2023-07-31T10:23:11;17.10;99.90
41720;DHT22;27405;53.316;-6.294;2023-07-31T10:25:38;17.10;99.90
41720;DHT22;27405;53.316;-6.294;2023-07-31T10:28:04;17.10;99.90
41720;DHT22;27405;53.316;-6.294;2023-07-31T10:30:32;17.00;99.90
41720;DHT22;27405;53.316;-6.294;2023-07-31T10:32:59;16.80;99.90
41720;DHT22;27405;53.316;-6.294;2023-07-31T10:35:25;16.70;99.90
41720;DHT22;27405;53.316;-6.294;2023-07-31T10:37:52;16.70;99.90
41720;DHT22;27405;53.316;-6.294;2023-07-31T10:40:25;16.70;99.90
41720;DHT22;27405;53.316;-6.294;2023-07-31T10:42:52;16.70;99.90
41720;DHT22;27405;53.316;-6.294;2023-07-31T10:48:15;16.70;99.90
41720;DHT22;27405;53.316;-6.294;2023-07-31T10:50:48;16.70;99.90
41720;DHT22;27405;53.316;-6.294;2023-07-31T10:53:31;16.70;99.90
41720;DHT22;27405;53.316;-6.294;2023-07-31T10:56:12;16.80;99.90
41720;DHT22;27405;53.316;-6.294;2023-07-31T10:58:39;16.90;99.90
41720;DHT22;27405;53.316;-6.294;2023-07-31T11:01:06;17.00;99.90
41720;DHT22;27405;53.316;-6.294;2023-07-31T11:03:48;17.20;99.90
41720;DHT22;27405;53.316;-6.294;2023-07-31T11:06:15;17.20;99.90
41720;DHT22;27405;53.316;-6.294;2023-07-31T11:08:48;17.30;99.90
41720;DHT22;27405;53.316;-6.294;2023-07-31T11:11:16;17.30;99.90
41720;DHT22;27405;53.316;-6.294;2023-07-31T11:13:52;17.30;99.90
41720;DHT22;27405;53.316;-6.294;2023-07-31T11:16:20;17.30;99.90
41720;DHT22;27405;53.316;-6.294;2023-07-31T11:18:47;17.40;99.90
41720;DHT22;27405;53.316;-6.294;2023-07-31T11:21:24;17.50;99.90
41720;DHT22;27405;53.316;-6.294;2023-07-31T11:23:57;17.60;99.90
41720;DHT22;27405;53.316;-6.294;2023-07-31T11:26:23;17.70;99.90
41720;DHT22;27405;53.316;-6.294;2023-07-31T11:28:50;17.70;99.90
41720;DHT22;27405;53.316;-6.294;2023-07-31T11:31:17;17.70;99.90
41720;DHT22;27405;53.316;-6.294;2023-07-31T11:33:43;17.70;99.90
41720;DHT22;27405;53.316;-6.294;2023-07-31T11:36:19;17.60;99.90
41720;DHT22;27405;53.316;-6.294;2023-07-31T11:38:45;17.70;99.90
41720;DHT22;27405;53.316;-6.294;2023-07-31T11:41:14;17.80;99.90
41720;DHT22;27405;53.316;-6.294;2023-07-31T11:43:41;18.00;99.90
41720;DHT22;27405;53.316;-6.294;2023-07-31T11:46:07;18.10;99.90
41720;DHT22;27405;53.316;-6.294;2023-07-31T11:48:34;18.20;99.90
41720;DHT22;27405;53.316;-6.294;2023-07-31T11:51:03;18.30;99.90
41720;DHT22;27405;53.316;-6.294;2023-07-31T11:53:34;18.40;99.90
41720;DHT22;27405;53.316;-6.294;2023-07-31T11:56:01;18.50;99.90
41720;DHT22;27405;53.316;-6.294;2023-07-31T11:58:31;18.60;99.90
41720;DHT22;27405;53.316;-6.294;2023-07-31T12:00:58;18.60;99.90
41720;DHT22;27405;53.316;-6.294;2023-07-31T12:03:24;18.70;99.90
41720;DHT22;27405;53.316;-6.294;2023-07-31T12:05:50;18.70;99.90
41720;DHT22;27405;53.316;-6.294;2023-07-31T12:08:15;18.90;99.90
41720;DHT22;27405;53.316;-6.294;2023-07-31T12:10:41;18.90;99.90
41720;DHT22;27405;53.316;-6.294;2023-07-31T12:13:12;19.00;99.90
41720;DHT22;27405;53.316;-6.294;2023-07-31T12:15:45;19.00;99.90
41720;DHT22;27405;53.316;-6.294;2023-07-31T12:18:15;19.00;99.90
41720;DHT22;27405;53.316;-6.294;2023-07-31T12:20:49;19.00;99.90
41720;DHT22;27405;53.316;-6.294;2023-07-31T12:23:20;19.10;99.90
41720;DHT22;27405;53.316;-6.294;2023-07-31T12:28:28;19.40;99.90
41720;DHT22;27405;53.316;-6.294;2023-07-31T12:30:57;19.50;99.90
41720;DHT22;27405;53.316;-6.294;2023-07-31T12:33:33;19.60;99.90
41720;DHT22;27405;53.316;-6.294;2023-07-31T12:36:02;19.70;99.90
41720;DHT22;27405;53.316;-6.294;2023-07-31T12:38:28;19.80;99.90
41720;DHT22;27405;53.316;-6.294;2023-07-31T12:40:54;19.90;99.90
41720;DHT22;27405;53.316;-6.294;2023-07-31T12:43:20;20.00;99.90
41720;DHT22;27405;53.316;-6.294;2023-07-31T12:45:45;20.10;99.90
41720;DHT22;27405;53.316;-6.294;2023-07-31T12:48:13;20.20;99.90
41720;DHT22;27405;53.316;-6.294;2023-07-31T12:50:38;20.30;99.90
41720;DHT22;27405;53.316;-6.294;2023-07-31T12:53:04;20.50;99.90
41720;DHT22;27405;53.316;-6.294;2023-07-31T12:55:30;20.60;99.90
41720;DHT22;27405;53.316;-6.294;2023-07-31T12:57:56;20.80;99.90
41720;DHT22;27405;53.316;-6.294;2023-07-31T13:00:22;20.90;99.90
41720;DHT22;27405;53.316;-6.294;2023-07-31T13:02:48;21.00;99.90
41720;DHT22;27405;53.316;-6.294;2023-07-31T13:05:14;21.10;99.90
41720;DHT22;27405;53.316;-6.294;2023-07-31T13:07:40;21.40;99.90
41720;DHT22;27405;53.316;-6.294;2023-07-31T13:10:07;21.70;99.90
41720;DHT22;27405;53.316;-6.294;2023-07-31T13:12:33;22.00;99.90
41720;DHT22;27405;53.316;-6.294;2023-07-31T13:14:59;22.20;99.90
41720;DHT22;27405;53.316;-6.294;2023-07-31T13:17:25;22.20;99.90
41720;DHT22;27405;53.316;-6.294;2023-07-31T13:19:50;21.90;99.90
41720;DHT22;27405;53.316;-6.294;2023-07-31T13:22:16;21.80;99.90
41720;DHT22;27405;53.316;-6.294;2023-07-31T13:24:42;21.80;99.90
41720;DHT22;27405;53.316;-6.294;2023-07-31T13:27:07;21.80;99.90
41720;DHT22;27405;53.316;-6.294;2023-07-31T13:29:33;21.80;99.90
41720;DHT22;27405;53.316;-6.294;2023-07-31T13:31:59;21.80;99.90
41720;DHT22;27405;53.316;-6.294;2023-07-31T13:34:24;21.90;99.90
41720;DHT22;27405;53.316;-6.294;2023-07-31T13:36:50;21.90;99.90
41720;DHT22;27405;53.316;-6.294;2023-07-31T13:39:16;21.90;99.90
41720;DHT22;27405;53.316;-6.294;2023-07-31T13:41:41;21.90;99.90
41720;DHT22;27405;53.316;-6.294;2023-07-31T13:44:07;21.80;99.90
41720;DHT22;27405;53.316;-6.294;2023-07-31T13:46:33;21.80;99.90
41720;DHT22;27405;53.316;-6.294;2023-07-31T13:48:59;21.90;99.90
41720;DHT22;27405;53.316;-6.294;2023-07-31T13:51:25;22.00;99.90
41720;DHT22;27405;53.316;-6.294;2023-07-31T13:53:52;22.00;99.90
41720;DHT22;27405;53.316;-6.294;2023-07-31T13:56:18;21.90;99.90
41720;DHT22;27405;53.316;-6.294;2023-07-31T13:58:44;21.70;99.90
41720;DHT22;27405;53.316;-6.294;2023-07-31T14:01:09;20.90;99.90
41720;DHT22;27405;53.316;-6.294;2023-07-31T14:03:35;20.20;99.90
41720;DHT22;27405;53.316;-6.294;2023-07-31T14:06:01;19.70;99.90
41720;DHT22;27405;53.316;-6.294;2023-07-31T14:08:26;19.30;99.90
41720;DHT22;27405;53.316;-6.294;2023-07-31T14:10:52;19.20;99.90
41720;DHT22;27405;53.316;-6.294;2023-07-31T14:13:18;19.00;99.90
41720;DHT22;27405;53.316;-6.294;2023-07-31T14:15:44;18.90;99.90
41720;DHT22;27405;53.316;-6.294;2023-07-31T14:18:09;18.70;99.90
41720;DHT22;27405;53.316;-6.294;2023-07-31T14:20:35;18.60;99.90
41720;DHT22;27405;53.316;-6.294;2023-07-31T14:23:04;18.50;99.90
41720;DHT22;27405;53.316;-6.294;2023-07-31T14:25:29;18.40;99.90
41720;DHT22;27405;53.316;-6.294;2023-07-31T14:27:55;18.50;99.90
41720;DHT22;27405;53.316;-6.294;2023-07-31T14:30:21;18.60;99.90
41720;DHT22;27405;53.316;-6.294;2023-07-31T14:32:47;18.80;99.90
41720;DHT22;27405;53.316;-6.294;2023-07-31T14:35:12;19.20;99.90
41720;DHT22;27405;53.316;-6.294;2023-07-31T14:37:43;19.40;99.90
41720;DHT22;27405;53.316;-6.294;2023-07-31T14:40:10;19.70;99.90
41720;DHT22;27405;53.316;-6.294;2023-07-31T14:42:36;20.00;99.90
41720;DHT22;27405;53.316;-6.294;2023-07-31T14:45:03;20.20;99.90
41720;DHT22;27405;53.316;-6.294;2023-07-31T14:47:28;20.40;99.90
41720;DHT22;27405;53.316;-6.294;2023-07-31T14:49:56;20.50;99.90
41720;DHT22;27405;53.316;-6.294;2023-07-31T14:52:22;20.60;99.90
41720;DHT22;27405;53.316;-6.294;2023-07-31T14:54:48;21.00;99.90
41720;DHT22;27405;53.316;-6.294;2023-07-31T14:57:13;21.40;99.90
41720;DHT22;27405;53.316;-6.294;2023-07-31T14:59:39;21.90;99.90
41720;DHT22;27405;53.316;-6.294;2023-07-31T15:02:05;21.90;99.90
41720;DHT22;27405;53.316;-6.294;2023-07-31T15:04:31;21.50;99.90
41720;DHT22;27405;53.316;-6.294;2023-07-31T15:06:57;21.10;99.90
41720;DHT22;27405;53.316;-6.294;2023-07-31T15:09:23;20.80;99.90
41720;DHT22;27405;53.316;-6.294;2023-07-31T15:11:48;20.90;99.90
41720;DHT22;27405;53.316;-6.294;2023-07-31T15:14:14;21.30;99.90
41720;DHT22;27405;53.316;-6.294;2023-07-31T15:16:39;22.00;99.90
41720;DHT22;27405;53.316;-6.294;2023-07-31T15:19:05;22.90;99.90
41720;DHT22;27405;53.316;-6.294;2023-07-31T15:21:31;23.30;99.90
41720;DHT22;27405;53.316;-6.294;2023-07-31T15:23:56;23.30;99.90
41720;DHT22;27405;53.316;-6.294;2023-07-31T15:26:22;23.10;99.60